createdAt,value
2022-09-10T00:01:28.923Z,0.75
2022-09-10T00:03:56.541Z,0.50
2022-09-10T00:06:26.221Z,0.40
2022-09-10T00:08:57.212Z,0.50
2022-09-10T00:11:25.765Z,0.50
2022-09-10T00:13:53.083Z,0.40
2022-09-10T00:16:20.533Z,0.35
2022-09-10T00:18:48.301Z,0.25
2022-09-10T00:21:17.419Z,0.30
2022-09-10T00:23:45.604Z,0.30
2022-09-10T00:26:14.974Z,0.30
2022-09-10T00:28:42.832Z,0.40
2022-09-10T00:31:11.419Z,0.43
2022-09-10T00:33:38.688Z,0.60
2022-09-10T00:36:24.136Z,0.40
2022-09-10T00:38:53.233Z,0.50
2022-09-10T00:41:23.314Z,0.50
2022-09-10T00:43:59.067Z,0.50
2022-09-10T00:46:47.591Z,0.60
2022-09-10T00:49:31.532Z,0.38
2022-09-10T00:52:00.095Z,0.35
2022-09-10T00:54:28.585Z,0.40
2022-09-10T00:56:59.555Z,0.50
2022-09-10T00:59:27.306Z,0.43
2022-09-10T01:01:55.686Z,0.50
2022-09-10T01:04:22.734Z,0.40
2022-09-10T01:06:53.052Z,0.30
2022-09-10T01:09:23.449Z,0.40
2022-09-10T01:12:04.406Z,0.40
2022-09-10T01:14:59.628Z,0.50
2022-09-10T01:17:51.514Z,0.40
2022-09-10T01:20:43.687Z,0.30
2022-09-10T01:23:42.279Z,0.30
2022-09-10T01:26:46.214Z,0.40
2022-09-10T01:29:19.072Z,0.30
2022-09-10T01:31:58.197Z,0.40
2022-09-10T01:34:41.813Z,0.20
2022-09-10T01:37:16.150Z,0.20
2022-09-10T01:39:44.482Z,0.40
2022-09-10T01:42:11.677Z,0.40
2022-09-10T01:44:51.952Z,0.50
2022-09-10T01:47:38.591Z,0.40
2022-09-10T01:50:17.714Z,0.40
2022-09-10T01:52:47.997Z,0.35
2022-09-10T01:55:50.522Z,0.30
2022-09-10T01:58:38.775Z,0.28
2022-09-10T02:01:24.011Z,0.20
2022-09-10T02:03:56.870Z,0.30
2022-09-10T02:06:30.125Z,0.20
2022-09-10T02:09:00.454Z,0.20
2022-09-10T02:11:28.669Z,0.17
2022-09-10T02:13:58.567Z,0.20
2022-09-10T02:16:58.672Z,0.30
2022-09-10T02:19:27.458Z,0.20
2022-09-10T02:21:56.714Z,0.17
2022-09-10T02:24:24.529Z,0.20
2022-09-10T02:26:51.615Z,0.20
2022-09-10T02:29:19.332Z,0.20
2022-09-10T02:31:47.375Z,0.30
2022-09-10T02:34:16.045Z,0.20
2022-09-10T02:36:46.800Z,0.20
2022-09-10T02:39:14.326Z,0.38
2022-09-10T02:41:41.489Z,0.30
2022-09-10T02:44:08.748Z,0.20
2022-09-10T02:46:38.335Z,0.22
2022-09-10T02:49:05.205Z,0.30
2022-09-10T02:51:37.067Z,0.40
2022-09-10T02:54:04.942Z,0.35
2022-09-10T02:56:32.425Z,0.30
2022-09-10T02:58:59.258Z,0.20
2022-09-10T03:01:27.909Z,0.50
2022-09-10T03:04:01.400Z,0.20
2022-09-10T03:06:29.908Z,0.22
2022-09-10T03:08:58.256Z,0.35
2022-09-10T03:11:27.644Z,0.40
2022-09-10T03:13:56.246Z,0.40
2022-09-10T03:16:24.318Z,0.40
2022-09-10T03:18:52.461Z,0.30
2022-09-10T03:21:22.675Z,0.60
2022-09-10T03:23:52.586Z,0.50
2022-09-10T03:26:25.375Z,0.80
2022-09-10T03:28:53.467Z,0.80
2022-09-10T03:31:22.908Z,0.50
2022-09-10T03:33:51.075Z,0.50
2022-09-10T03:36:18.310Z,0.50
2022-09-10T03:38:47.516Z,0.40
2022-09-10T03:41:14.358Z,0.40
2022-09-10T03:43:41.418Z,0.30
2022-09-10T03:46:12.183Z,0.38
2022-09-10T03:48:43.585Z,0.32
2022-09-10T03:51:10.901Z,0.25
2022-09-10T03:53:38.735Z,0.40
2022-09-10T03:56:07.148Z,0.38
2022-09-10T03:58:35.801Z,0.20
2022-09-10T04:01:03.984Z,0.30
2022-09-10T04:03:32.865Z,0.40
2022-09-10T04:05:59.685Z,0.30
2022-09-10T04:08:26.418Z,0.30
2022-09-10T04:10:55.085Z,0.30
2022-09-10T04:13:23.032Z,0.20
2022-09-10T04:15:49.814Z,0.30
2022-09-10T04:18:16.941Z,0.30
2022-09-10T04:20:48.148Z,0.40
2022-09-10T04:23:16.397Z,0.28
2022-09-10T04:25:44.209Z,0.30
2022-09-10T04:28:11.572Z,0.20
2022-09-10T04:30:40.720Z,0.40
2022-09-10T04:33:09.626Z,0.30
2022-09-10T04:35:36.632Z,0.40
2022-09-10T04:38:07.089Z,0.20
2022-09-10T04:40:37.319Z,0.30
2022-09-10T04:43:04.888Z,0.30
2022-09-10T04:45:34.883Z,0.30
2022-09-10T04:48:06.690Z,0.30
2022-09-10T04:50:36.199Z,0.43
2022-09-10T04:53:07.938Z,0.38
2022-09-10T04:55:37.723Z,0.30
2022-09-10T04:58:05.928Z,0.20
2022-09-10T05:00:33.243Z,0.28
2022-09-10T05:03:00.113Z,0.30
2022-09-10T05:05:28.439Z,0.38
2022-09-10T05:07:55.633Z,0.40
2022-09-10T05:10:23.429Z,0.40
2022-09-10T05:12:50.759Z,0.40
2022-09-10T05:15:17.835Z,0.55
2022-09-10T05:17:47.990Z,0.50
2022-09-10T05:20:15.531Z,0.47
2022-09-10T05:22:48.996Z,0.50
2022-09-10T05:25:15.987Z,0.43
2022-09-10T05:27:42.960Z,0.40
2022-09-10T05:30:14.293Z,0.30
2022-09-10T05:32:41.144Z,0.50
2022-09-10T05:35:08.738Z,0.70
2022-09-10T05:37:38.882Z,0.57
2022-09-10T05:40:08.059Z,0.55
2022-09-10T05:42:35.879Z,0.60
2022-09-10T05:45:03.341Z,0.55
2022-09-10T05:47:31.070Z,0.47
2022-09-10T05:50:00.025Z,0.60
2022-09-10T05:52:27.958Z,0.60
2022-09-10T05:54:59.809Z,0.65
2022-09-10T05:57:26.879Z,0.70
2022-09-10T05:59:53.890Z,0.52
2022-09-10T06:02:24.170Z,0.80
2022-09-10T06:04:52.783Z,0.50
2022-09-10T06:07:20.200Z,0.40
2022-09-10T06:09:47.002Z,0.65
2022-09-10T06:12:38.226Z,0.63
2022-09-10T06:15:07.142Z,0.52
2022-09-10T06:17:33.973Z,0.50
2022-09-10T06:20:01.497Z,0.35
2022-09-10T06:22:32.450Z,0.45
2022-09-10T06:24:59.224Z,0.60
2022-09-10T06:27:26.496Z,0.60
2022-09-10T06:29:53.787Z,0.60
2022-09-10T06:32:20.751Z,0.40
2022-09-10T06:34:47.518Z,0.60
2022-09-10T06:37:14.489Z,0.70
2022-09-10T06:39:41.707Z,0.55
2022-09-10T06:42:08.572Z,0.50
2022-09-10T06:44:50.707Z,0.60
2022-09-10T06:48:19.099Z,0.30
2022-09-10T06:50:21.034Z,0.40
2022-09-10T06:52:49.606Z,0.40
2022-09-10T06:55:19.569Z,0.50
2022-09-10T06:57:47.368Z,0.50
2022-09-10T07:00:16.533Z,0.50
2022-09-10T07:02:46.328Z,0.32
2022-09-10T07:05:13.113Z,0.35
2022-09-10T07:07:41.657Z,0.50
2022-09-10T07:10:09.172Z,0.50
2022-09-10T07:12:36.239Z,0.57
2022-09-10T07:15:05.482Z,0.57
2022-09-10T07:17:35.959Z,0.38
2022-09-10T07:20:03.866Z,0.68
2022-09-10T07:22:43.664Z,0.52
2022-09-10T07:25:12.726Z,0.43
2022-09-10T07:30:24.097Z,0.60
2022-09-10T07:32:51.847Z,0.50
2022-09-10T07:35:23.290Z,0.40
2022-09-10T07:37:50.675Z,0.40
2022-09-10T07:40:19.841Z,0.50
2022-09-10T07:42:46.659Z,0.60
2022-09-10T07:45:15.708Z,0.50
2022-09-10T07:47:44.594Z,0.70
2022-09-10T07:50:11.971Z,0.60
2022-09-10T07:52:38.808Z,0.55
2022-09-10T07:55:06.241Z,0.60
2022-09-10T07:57:37.838Z,0.50
2022-09-10T08:00:12.791Z,0.40
2022-09-10T08:02:43.059Z,0.70
2022-09-10T08:05:15.327Z,0.60
2022-09-10T08:07:43.374Z,0.60
2022-09-10T08:10:11.261Z,0.52
2022-09-10T08:12:42.304Z,0.43
2022-09-10T08:15:11.356Z,0.50
2022-09-10T08:17:40.639Z,0.40
2022-09-10T08:20:10.067Z,0.50
2022-09-10T08:22:39.855Z,0.60
2022-09-10T08:25:07.407Z,0.60
2022-09-10T08:27:36.587Z,0.70
2022-09-10T08:30:06.264Z,0.60
2022-09-10T08:32:35.081Z,0.60
2022-09-10T08:35:04.823Z,0.90
2022-09-10T08:37:33.345Z,0.65
2022-09-10T08:40:00.294Z,0.50
2022-09-10T08:42:36.673Z,0.70
2022-09-10T08:45:15.652Z,0.88
2022-09-10T08:47:57.375Z,0.90
2022-09-10T08:50:47.113Z,0.60
2022-09-10T08:53:48.525Z,0.70
2022-09-10T08:56:18.370Z,0.60
2022-09-10T08:59:05.838Z,0.63
2022-09-10T09:01:47.590Z,0.60
2022-09-10T09:04:42.899Z,0.93
2022-09-10T09:07:15.421Z,0.40
2022-09-10T09:12:36.932Z,0.82
2022-09-10T09:15:31.507Z,0.90
2022-09-10T09:18:38.318Z,0.70
2022-09-10T09:21:15.805Z,0.82
2022-09-10T09:24:12.661Z,0.90
2022-09-10T09:26:47.272Z,0.90
2022-09-10T09:29:30.568Z,0.80
2022-09-10T09:32:02.843Z,0.90
2022-09-10T09:34:36.273Z,0.80
2022-09-10T09:37:11.895Z,0.77
2022-09-10T09:39:45.636Z,0.70
2022-09-10T09:42:22.384Z,0.80
2022-09-10T09:44:56.996Z,0.70
2022-09-10T09:47:25.064Z,0.60
2022-09-10T09:49:53.947Z,0.60
2022-09-10T09:52:26.774Z,0.95
2022-09-10T09:55:15.963Z,0.88
2022-09-10T09:57:43.206Z,0.73
2022-09-10T10:00:37.837Z,0.75
2022-09-10T10:03:18.010Z,0.88
2022-09-10T10:05:44.974Z,0.63
2022-09-10T10:08:34.089Z,0.63
2022-09-10T10:11:01.901Z,0.70
2022-09-10T10:13:52.957Z,0.70
2022-09-10T10:16:35.721Z,0.60
2022-09-10T10:19:03.311Z,0.50
2022-09-10T10:21:34.829Z,0.70
2022-09-10T10:24:01.728Z,0.60
2022-09-10T10:26:35.937Z,0.32
2022-09-10T10:29:18.691Z,0.60
2022-09-10T10:31:48.142Z,0.60
2022-09-10T10:34:33.087Z,0.40
2022-09-10T10:37:02.743Z,0.60
2022-09-10T10:39:45.198Z,0.50
2022-09-10T10:42:22.223Z,0.47
2022-09-10T10:45:08.167Z,0.38
2022-09-10T10:47:43.253Z,0.40
2022-09-10T10:50:23.500Z,0.52
2022-09-10T10:52:53.414Z,0.43
2022-09-10T10:55:31.480Z,0.50
2022-09-10T10:58:10.267Z,0.52
2022-09-10T11:00:49.768Z,0.35
2022-09-10T11:03:35.613Z,0.45
2022-09-10T11:06:14.966Z,0.40
2022-09-10T11:08:50.317Z,0.43
2022-09-10T11:11:47.850Z,0.30
2022-09-10T11:14:25.993Z,0.50
2022-09-10T11:17:10.291Z,0.57
2022-09-10T11:20:00.442Z,0.60
2022-09-10T11:22:41.754Z,0.63
2022-09-10T11:25:56.169Z,0.60
2022-09-10T11:28:54.361Z,0.43
2022-09-10T11:31:30.853Z,1.00
2022-09-10T11:34:00.805Z,0.50
2022-09-10T11:36:53.106Z,0.40
2022-09-10T11:39:29.087Z,0.50
2022-09-10T11:41:59.816Z,0.43
2022-09-10T11:45:07.340Z,0.38
2022-09-10T11:47:42.476Z,0.45
2022-09-10T11:50:33.681Z,0.50
2022-09-10T11:53:07.366Z,0.60
2022-09-10T11:55:49.815Z,0.80
2022-09-10T11:58:33.018Z,0.70
2022-09-10T12:01:20.652Z,0.93
2022-09-10T12:04:04.027Z,0.85
2022-09-10T12:07:04.374Z,0.60
2022-09-10T12:09:56.571Z,0.82
2022-09-10T12:12:26.375Z,0.80
2022-09-10T12:14:53.925Z,0.80
2022-09-10T12:17:39.482Z,0.80
2022-09-10T12:20:12.927Z,0.60
2022-09-10T12:22:41.739Z,0.65
2022-09-10T12:25:18.550Z,0.70
2022-09-10T12:27:51.179Z,0.70
2022-09-10T12:30:30.929Z,0.63
2022-09-10T12:33:00.530Z,0.80
2022-09-10T12:35:34.301Z,0.60
2022-09-10T12:38:42.072Z,0.40
2022-09-10T12:41:25.641Z,0.68
2022-09-10T12:43:55.860Z,0.60
2022-09-10T12:46:25.342Z,0.65
2022-09-10T12:48:58.964Z,0.70
2022-09-10T12:51:51.697Z,0.50
2022-09-10T12:54:24.577Z,0.50
2022-09-10T12:57:08.983Z,0.50
2022-09-10T12:59:44.889Z,0.50
2022-09-10T13:02:31.804Z,0.70
2022-09-10T13:05:06.463Z,0.85
2022-09-10T13:07:41.639Z,0.80
2022-09-10T13:10:22.336Z,0.70
2022-09-10T13:12:55.286Z,0.70
2022-09-10T13:15:25.948Z,0.90
2022-09-10T13:17:52.687Z,0.65
2022-09-10T13:20:22.172Z,1.08
2022-09-10T13:23:06.410Z,1.10
2022-09-10T13:25:47.707Z,1.20
2022-09-10T13:28:29.923Z,0.80
2022-09-10T13:31:08.957Z,1.00
2022-09-10T13:34:00.918Z,0.90
2022-09-10T13:36:43.679Z,0.80
2022-09-10T13:39:32.072Z,0.77
2022-09-10T13:42:10.807Z,0.88
2022-09-10T13:44:52.805Z,0.98
2022-09-10T13:47:42.727Z,0.90
2022-09-10T13:50:17.288Z,1.23
2022-09-10T13:52:47.942Z,1.42
2022-09-10T13:55:20.598Z,1.40
2022-09-10T13:57:50.132Z,1.20
2022-09-10T14:00:27.632Z,0.90
2022-09-10T14:02:56.985Z,1.10
2022-09-10T14:05:33.925Z,1.40
2022-09-10T14:08:17.821Z,1.00
2022-09-10T14:11:07.285Z,1.30
2022-09-10T14:13:37.868Z,1.20
2022-09-10T14:16:07.862Z,1.20
2022-09-10T14:18:52.296Z,1.10
2022-09-10T14:21:26.846Z,1.10
2022-09-10T14:23:55.844Z,1.20
2022-09-10T14:26:30.581Z,1.00
2022-09-10T14:31:26.384Z,1.10
2022-09-10T14:33:58.537Z,1.00
2022-09-10T14:36:28.718Z,1.00
2022-09-10T14:39:16.537Z,1.10
2022-09-10T14:41:44.529Z,1.20
2022-09-10T14:44:24.038Z,1.27
2022-09-10T14:47:10.787Z,1.00
2022-09-10T14:49:41.283Z,1.00
2022-09-10T14:52:10.349Z,1.00
2022-09-10T14:54:37.060Z,0.85
2022-09-10T14:57:13.907Z,1.13
2022-09-10T14:59:46.302Z,0.77
2022-09-10T15:02:26.566Z,0.80
2022-09-10T15:04:55.100Z,0.80
2022-09-10T15:07:23.685Z,1.05
2022-09-10T15:09:51.912Z,1.00
2022-09-10T15:12:24.409Z,1.05
2022-09-10T15:14:55.109Z,1.10
2022-09-10T15:17:21.875Z,1.05
2022-09-10T15:19:48.703Z,1.02
2022-09-10T15:22:27.507Z,0.90
2022-09-10T15:25:11.494Z,1.10
2022-09-10T15:27:38.568Z,0.80
2022-09-10T15:30:06.495Z,0.90
2022-09-10T15:32:33.400Z,0.60
2022-09-10T15:35:00.892Z,0.68
2022-09-10T15:37:28.069Z,0.60
2022-09-10T15:39:55.027Z,0.70
2022-09-10T15:42:21.876Z,0.70
2022-09-10T15:44:48.661Z,0.73
2022-09-10T15:47:15.490Z,0.85
2022-09-10T15:49:42.352Z,0.82
2022-09-10T15:52:09.932Z,0.90
2022-09-10T15:54:36.715Z,0.80
2022-09-10T15:57:03.541Z,0.60
2022-09-10T15:59:30.285Z,0.80
2022-09-10T16:01:57.137Z,0.90
2022-09-10T16:04:25.063Z,0.75
2022-09-10T16:06:52.087Z,0.57
2022-09-10T16:09:19.023Z,0.60
2022-09-10T16:11:45.949Z,0.80
2022-09-10T16:14:15.903Z,1.00
2022-09-10T16:16:43.091Z,1.02
2022-09-10T16:19:13.050Z,0.80
2022-09-10T16:21:40.163Z,1.00
2022-09-10T16:24:07.919Z,1.00
2022-09-10T16:26:42.772Z,0.60
2022-09-10T16:29:19.431Z,0.85
2022-09-10T16:31:46.582Z,0.80
2022-09-10T16:34:17.411Z,0.70
2022-09-10T16:36:45.973Z,0.63
2022-09-10T16:39:15.468Z,0.70
2022-09-10T16:41:44.912Z,0.60
2022-09-10T16:44:14.668Z,0.63
2022-09-10T16:46:42.243Z,0.60
2022-09-10T16:49:14.305Z,0.60
2022-09-10T16:51:42.917Z,0.70
2022-09-10T16:54:11.059Z,0.80
2022-09-10T16:56:43.367Z,0.70
2022-09-10T16:59:17.778Z,0.80
2022-09-10T17:01:46.569Z,0.95
2022-09-10T17:04:18.937Z,0.90
2022-09-10T17:06:47.591Z,0.70
2022-09-10T17:09:15.213Z,0.70
2022-09-10T17:11:42.205Z,0.90
2022-09-10T17:14:09.054Z,0.73
2022-09-10T17:16:38.035Z,0.65
2022-09-10T17:19:14.295Z,0.95
2022-09-10T17:21:43.621Z,1.10
2022-09-10T17:24:12.408Z,1.05
2022-09-10T17:26:40.386Z,1.30
2022-09-10T17:29:15.964Z,1.20
2022-09-10T17:31:43.905Z,0.80
2022-09-10T17:34:13.157Z,1.20
2022-09-10T17:36:45.404Z,1.10
2022-09-10T17:39:13.051Z,0.90
2022-09-10T17:41:40.176Z,1.20
2022-09-10T17:44:08.086Z,1.10
2022-09-10T17:46:36.119Z,1.10
2022-09-10T17:49:04.208Z,1.10
2022-09-10T17:51:33.914Z,0.80
2022-09-10T17:54:03.227Z,1.00
2022-09-10T17:56:30.726Z,0.90
2022-09-10T17:58:59.272Z,0.80
2022-09-10T18:01:29.525Z,0.68
2022-09-10T18:03:56.627Z,0.70
2022-09-10T18:06:25.260Z,0.80
2022-09-10T18:08:52.077Z,0.70
2022-09-10T18:11:23.103Z,0.70
2022-09-10T18:13:52.356Z,0.60
2022-09-10T18:16:22.320Z,0.65
2022-09-10T18:18:55.687Z,0.80
2022-09-10T18:21:25.579Z,0.70
2022-09-10T18:23:57.759Z,0.60
2022-09-10T18:26:26.808Z,0.65
2022-09-10T18:28:59.989Z,0.60
2022-09-10T18:31:29.641Z,0.60
2022-09-10T18:33:57.131Z,0.60
2022-09-10T18:36:25.251Z,0.60
2022-09-10T18:38:53.062Z,0.43
2022-09-10T18:41:28.404Z,0.50
2022-09-10T18:44:00.800Z,0.60
2022-09-10T18:46:30.974Z,0.55
2022-09-10T18:48:58.841Z,0.68
2022-09-10T18:51:28.137Z,0.50
2022-09-10T18:54:00.232Z,0.70
2022-09-10T18:56:30.383Z,0.60
2022-09-10T18:59:04.851Z,0.50
2022-09-10T19:01:33.070Z,0.75
2022-09-10T19:04:00.147Z,0.70
2022-09-10T19:06:29.528Z,0.70
2022-09-10T19:08:59.264Z,0.80
2022-09-10T19:11:30.199Z,0.80
2022-09-10T19:13:57.302Z,0.77
2022-09-10T19:16:27.091Z,0.82
2022-09-10T19:18:56.157Z,0.90
2022-09-10T19:21:24.352Z,0.80
2022-09-10T19:23:55.189Z,0.70
2022-09-10T19:26:25.409Z,0.60
2022-09-10T19:28:52.340Z,0.80
2022-09-10T19:31:20.582Z,0.70
2022-09-10T19:33:48.445Z,1.00
2022-09-10T19:36:17.819Z,0.80
2022-09-10T19:38:46.773Z,0.93
2022-09-10T19:41:18.627Z,1.10
2022-09-10T19:43:50.779Z,1.10
2022-09-10T19:46:19.496Z,1.10
2022-09-10T19:48:47.150Z,1.20
2022-09-10T19:51:16.870Z,1.20
2022-09-10T19:53:43.856Z,1.20
2022-09-10T19:56:20.683Z,1.05
2022-09-10T19:58:50.632Z,1.20
2022-09-10T20:01:23.646Z,1.17
2022-09-10T20:03:51.970Z,1.35
2022-09-10T20:06:21.162Z,1.40
2022-09-10T20:08:50.340Z,1.20
2022-09-10T20:11:25.325Z,1.17
2022-09-10T20:13:59.422Z,0.90
2022-09-10T20:16:26.741Z,1.00
2022-09-10T20:18:54.018Z,1.10
2022-09-10T20:21:27.303Z,1.10
2022-09-10T20:23:56.194Z,0.90
2022-09-10T20:26:28.856Z,1.08
2022-09-10T20:28:58.981Z,0.85
2022-09-10T20:31:28.433Z,1.23
2022-09-10T20:33:57.322Z,1.42
2022-09-10T20:36:25.924Z,1.17
2022-09-10T20:38:54.396Z,0.90
2022-09-10T20:41:21.418Z,0.85
2022-09-10T20:43:52.193Z,0.70
2022-09-10T20:46:22.150Z,0.75
2022-09-10T20:48:50.398Z,0.70
2022-09-10T20:51:18.588Z,0.63
2022-09-10T20:53:45.533Z,0.80
2022-09-10T20:56:15.630Z,0.45
2022-09-10T20:58:42.472Z,0.60
2022-09-10T21:01:14.429Z,0.50
2022-09-10T21:03:43.030Z,0.50
2022-09-10T21:06:11.209Z,0.43
2022-09-10T21:08:46.215Z,0.43
2022-09-10T21:11:22.316Z,0.30
2022-09-10T21:13:53.408Z,0.40
2022-09-10T21:16:38.584Z,0.47
2022-09-10T21:19:16.697Z,0.45
2022-09-10T21:21:51.447Z,0.70
2022-09-10T21:24:22.482Z,0.57
2022-09-10T21:26:50.153Z,0.60
2022-09-10T21:29:23.863Z,0.77
2022-09-10T21:31:57.058Z,0.40
2022-09-10T21:34:23.792Z,0.55
2022-09-10T21:36:50.990Z,0.65
2022-09-10T21:39:18.144Z,0.50
2022-09-10T21:41:47.438Z,0.52
2022-09-10T21:44:19.626Z,0.63
2022-09-10T21:46:47.398Z,0.60
2022-09-10T21:49:14.586Z,0.70
2022-09-10T21:51:42.205Z,0.75
2022-09-10T21:54:18.604Z,0.60
2022-09-10T21:56:45.437Z,0.60
2022-09-10T21:59:13.223Z,0.80
2022-09-10T22:01:41.971Z,0.70
2022-09-10T22:04:09.162Z,0.75
2022-09-10T22:06:36.180Z,0.70
2022-09-10T22:09:06.685Z,0.93
2022-09-10T22:11:37.030Z,0.68
2022-09-10T22:14:06.374Z,0.70
2022-09-10T22:16:35.232Z,0.70
2022-09-10T22:19:06.009Z,1.00
2022-09-10T22:21:33.138Z,0.85
2022-09-10T22:23:59.886Z,0.70
2022-09-10T22:26:30.362Z,0.60
2022-09-10T22:29:02.552Z,0.77
2022-09-10T22:31:34.339Z,0.60
2022-09-10T22:34:06.285Z,0.70
2022-09-10T22:36:35.802Z,0.60
2022-09-10T22:39:08.405Z,0.70
2022-09-10T22:41:37.341Z,0.70
2022-09-10T22:44:04.587Z,0.80
2022-09-10T22:46:33.190Z,0.50
2022-09-10T22:49:00.156Z,0.50
2022-09-10T22:51:29.698Z,0.60
2022-09-10T22:53:58.237Z,0.38
2022-09-10T22:56:26.700Z,0.40
2022-09-10T22:58:55.852Z,0.50
2022-09-10T23:01:27.380Z,0.50
2022-09-10T23:03:56.526Z,0.50
2022-09-10T23:06:31.790Z,0.55
2022-09-10T23:09:21.511Z,0.50
2022-09-10T23:11:55.266Z,0.35
2022-09-10T23:14:22.150Z,0.40
2022-09-10T23:16:50.841Z,0.43
2022-09-10T23:19:23.425Z,0.30
2022-09-10T23:21:52.987Z,0.40
2022-09-10T23:24:24.976Z,0.30
2022-09-10T23:26:52.180Z,0.50
2022-09-10T23:29:20.505Z,0.40
2022-09-10T23:31:47.685Z,0.40
2022-09-10T23:34:17.338Z,0.30
2022-09-10T23:36:45.509Z,0.40
2022-09-10T23:39:18.009Z,0.43
2022-09-10T23:41:44.812Z,0.47
2022-09-10T23:44:12.312Z,0.38
2022-09-10T23:46:39.499Z,0.60
2022-09-10T23:49:07.482Z,0.60
2022-09-10T23:51:34.494Z,0.40
2022-09-10T23:54:01.437Z,0.70
2022-09-10T23:56:28.989Z,0.80
2022-09-10T23:58:59.222Z,0.60
